| time (UTC) | temp C | wind direction | speed KPH | gust KPH | rain 1hr cm | rain 24hr cm | rain mn cm | humidity % | barometer mb |
| 20260906185800 | 25 | 96 | 0.0 | 3.2 | 0.00 | 0.05 | 0.05 | 83 | 1025.1 |
| 20260906185301 | 25 | 112 | 0.0 | 1.6 | 0.00 | 0.05 | 0.05 | 82 | 1025.0 |
| 20260906184800 | 25 | 143 | 0.0 | 0.0 | 0.00 | 0.05 | 0.05 | 81 | 1025.0 |
| 20260906184300 | 25 | 114 | 0.0 | 1.6 | 0.00 | 0.05 | 0.05 | 79 | 1024.9 |
| 20260906183759 | 25 | 110 | 0.0 | 0.0 | 0.00 | 0.05 | 0.05 | 78 | 1024.9 |
| 20260906183301 | 25 | 141 | 0.0 | 1.6 | 0.00 | 0.05 | 0.05 | 78 | 1024.8 |
| 20260906182801 | 26 | 150 | 0.0 | 1.6 | 0.00 | 0.05 | 0.05 | 76 | 1024.7 |
| 20260906182305 | 26 | 212 | 0.0 | 0.0 | 0.00 | 0.05 | 0.05 | 75 | 1024.7 |
| 20260906181300 | 26 | 204 | 0.0 | 1.6 | 0.00 | 0.05 | 0.05 | 74 | 1024.6 |
| 20260906180801 | 26 | 205 | 0.0 | 1.6 | 0.00 | 0.05 | 0.05 | 74 | 1024.5 |
| 20260906175800 | 26 | 219 | 0.0 | 3.2 | 0.00 | 0.05 | 0.05 | 74 | 1024.5 |
| 20260906175300 | 26 | 173 | 0.0 | 0.0 | 0.00 | 0.05 | 0.05 | 74 | 1024.3 |
| 20260906174259 | 26 | 213 | 0.0 | 1.6 | 0.00 | 0.05 | 0.05 | 73 | 1024.3 |
| 20260906173756 | 27 | 210 | 0.0 | 4.8 | 0.00 | 0.05 | 0.05 | 73 | 1024.3 |
| 20260906173254 | 27 | 129 | 0.0 | 4.8 | 0.00 | 0.05 | 0.05 | 72 | 1024.3 |
| 20260906172754 | 27 | 157 | 0.0 | 3.2 | 0.00 | 0.05 | 0.05 | 70 | 1024.2 |
| 20260906172253 | 28 | 166 | 0.0 | 6.4 | 0.00 | 0.05 | 0.05 | 68 | 1024.2 |
| 20260906171753 | 28 | 136 | 0.0 | 6.4 | 0.00 | 0.05 | 0.05 | 67 | 1024.1 |
| 20260906171254 | 28 | 204 | 0.0 | 3.2 | 0.00 | 0.05 | 0.05 | 66 | 1024.1 |
| 20260906170753 | 28 | 267 | 1.6 | 6.4 | 0.00 | 0.05 | 0.05 | 66 | 1024.1 |
| 20260906170253 | 29 | 204 | 1.6 | 8.0 | 0.00 | 0.05 | 0.05 | 66 | 1024.1 |
| 20260906165752 | 28 | 210 | 3.2 | 11.3 | 0.00 | 0.05 | 0.05 | 66 | 1024.1 |
| 20260906165250 | 29 | 288 | 3.2 | 11.3 | 0.00 | 0.05 | 0.05 | 65 | 1024.1 |
| 20260906164745 | 30 | 259 | 1.6 | 8.0 | 0.00 | 0.05 | 0.05 | 64 | 1024.1 |
| 20260906164245 | 30 | 257 | 3.2 | 8.0 | 0.00 | 0.05 | 0.05 | 64 | 1024.1 |
| 20260906163746 | 30 | 210 | 3.2 | 8.0 | 0.00 | 0.05 | 0.05 | 64 | 1024.0 |
| 20260906163247 | 30 | 218 | 3.2 | 8.0 | 0.00 | 0.05 | 0.05 | 63 | 1024.1 |
| 20260906162744 | 30 | 206 | 3.2 | 9.7 | 0.00 | 0.05 | 0.05 | 63 | 1024.0 |
| 20260906162242 | 30 | 215 | 3.2 | 9.7 | 0.00 | 0.05 | 0.05 | 62 | 1023.9 |
| 20260906161243 | 30 | 233 | 4.8 | 11.3 | 0.00 | 0.05 | 0.05 | 61 | 1023.9 |
| 20260906160741 | 30 | 226 | 4.8 | 16.1 | 0.00 | 0.05 | 0.05 | 61 | 1023.9 |
| 20260906155740 | 30 | 223 | 4.8 | 16.1 | 0.00 | 0.05 | 0.05 | 61 | 1023.9 |
| 20260906155239 | 31 | 224 | 3.2 | 12.9 | 0.00 | 0.05 | 0.05 | 59 | 1024.0 |
| 20260906154739 | 31 | 191 | 1.6 | 8.0 | 0.00 | 0.05 | 0.05 | 56 | 1024.0 |
| 20260906154237 | 31 | 159 | 1.6 | 8.0 | 0.00 | 0.05 | 0.05 | 49 | 1023.9 |
| 20260906153239 | 32 | 118 | 1.6 | 8.0 | 0.00 | 0.05 | 0.05 | 39 | 1023.9 |
| 20260906152239 | 31 | 221 | 3.2 | 11.3 | 0.00 | 0.05 | 0.05 | 40 | 1023.9 |
| 20260906151737 | 31 | 226 | 3.2 | 11.3 | 0.00 | 0.05 | 0.05 | 40 | 1023.9 |
| 20260906151236 | 32 | 153 | 1.6 | 8.0 | 0.00 | 0.05 | 0.05 | 41 | 1024.0 |
| 20260906150733 | 31 | 110 | 1.6 | 6.4 | 0.00 | 0.05 | 0.05 | 40 | 1023.9 |
| 20260906145734 | 31 | 212 | 4.8 | 12.9 | 0.00 | 0.05 | 0.05 | 43 | 1024.0 |
| 20260906144735 | 31 | 155 | 3.2 | 12.9 | 0.00 | 0.05 | 0.05 | 42 | 1024.0 |
| 20260906144233 | 31 | 228 | 4.8 | 12.9 | 0.00 | 0.05 | 0.05 | 41 | 1024.1 |
| 20260906143733 | 31 | 129 | 3.2 | 11.3 | 0.00 | 0.05 | 0.05 | 41 | 1024.1 |
| 20260906143227 | 31 | 274 | 3.2 | 9.7 | 0.00 | 0.05 | 0.05 | 42 | 1024.1 |
| 20260906142721 | 31 | 226 | 3.2 | 8.0 | 0.00 | 0.05 | 0.05 | 43 | 1024.1 |
| 20260906142216 | 31 | 210 | 1.6 | 8.0 | 0.00 | 0.05 | 0.05 | 43 | 1024.1 |
| 20260906141717 | 31 | 198 | 1.6 | 6.4 | 0.00 | 0.05 | 0.05 | 42 | 1024.2 |
| 20260906141219 | 31 | 211 | 3.2 | 11.3 | 0.00 | 0.05 | 0.05 | 44 | 1024.2 |
| 20260906140716 | 31 | 206 | 3.2 | 11.3 | 0.00 | 0.05 | 0.05 | 46 | 1024.1 |
| 20260906140216 | 31 | 210 | 3.2 | 11.3 | 0.00 | 0.05 | 0.05 | 46 | 1024.2 |
| 20260906135715 | 31 | 197 | 3.2 | 9.7 | 0.00 | 0.05 | 0.05 | 44 | 1024.1 |
| 20260906135213 | 31 | 212 | 3.2 | 11.3 | 0.00 | 0.05 | 0.05 | 46 | 1024.1 |
| 20260906134711 | 31 | 204 | 4.8 | 11.3 | 0.00 | 0.05 | 0.05 | 45 | 1024.2 |
| 20260906133712 | 31 | 168 | 3.2 | 9.7 | 0.00 | 0.05 | 0.05 | 46 | 1024.2 |
| 20260906133210 | 31 | 238 | 3.2 | 11.3 | 0.00 | 0.05 | 0.05 | 48 | 1024.1 |
| 20260906132713 | 31 | 223 | 3.2 | 11.3 | 0.00 | 0.05 | 0.05 | 47 | 1024.2 |
| 20260906132213 | 31 | 176 | 3.2 | 9.7 | 0.00 | 0.05 | 0.05 | 48 | 1024.2 |
| 20260906131713 | 31 | 145 | 1.6 | 9.7 | 0.00 | 0.05 | 0.05 | 49 | 1024.2 |
| 20260906131212 | 30 | 272 | 1.6 | 8.0 | 0.00 | 0.05 | 0.05 | 49 | 1024.3 |
| 20260906130722 | 30 | 207 | 1.6 | 8.0 | 0.00 | 0.05 | 0.05 | 47 | 1024.3 |
| 20260906125710 | 30 | 214 | 3.2 | 9.7 | 0.00 | 0.05 | 0.05 | 50 | 1024.5 |
| 20260906125211 | 30 | 216 | 1.6 | 9.7 | 0.00 | 0.05 | 0.05 | 51 | 1024.5 |
| 20260906124708 | 30 | 222 | 1.6 | 8.0 | 0.00 | 0.05 | 0.05 | 54 | 1024.5 |
| 20260906124209 | 30 | 274 | 1.6 | 8.0 | 0.00 | 0.05 | 0.05 | 53 | 1024.6 |
| 20260906122709 | 30 | 241 | 1.6 | 8.0 | 0.00 | 0.05 | 0.05 | 56 | 1024.6 |
| 20260906122207 | 30 | 251 | 0.0 | 6.4 | 0.00 | 0.05 | 0.05 | 56 | 1024.6 |
| 20260906121705 | 30 | 158 | 1.6 | 8.0 | 0.00 | 0.05 | 0.05 | 57 | 1024.6 |
| 20260906121206 | 29 | 169 | 1.6 | 8.0 | 0.00 | 0.05 | 0.05 | 59 | 1024.7 |
| 20260906120705 | 29 | 207 | 3.2 | 9.7 | 0.00 | 0.05 | 0.05 | 59 | 1024.8 |
| 20260906120206 | 29 | 238 | 3.2 | 9.7 | 0.00 | 0.05 | 0.05 | 59 | 1024.7 |
| 20260906115707 | 29 | 159 | 3.2 | 12.9 | 0.00 | 0.05 | 0.05 | 58 | 1024.8 |
| 20260906115206 | 28 | 259 | 3.2 | 12.9 | 0.00 | 0.05 | 0.05 | 59 | 1024.7 |
| 20260906114706 | 28 | 207 | 1.6 | 8.0 | 0.00 | 0.05 | 0.05 | 60 | 1024.7 |
| 20260906113703 | 28 | 202 | 3.2 | 9.7 | 0.00 | 0.05 | 0.05 | 61 | 1024.7 |
| 20260906113202 | 28 | 212 | 3.2 | 11.3 | 0.00 | 0.05 | 0.05 | 63 | 1024.6 |
| 20260906112703 | 28 | 148 | 1.6 | 11.3 | 0.00 | 0.05 | 0.05 | 62 | 1024.7 |
| 20260906112200 | 28 | 253 | 1.6 | 9.7 | 0.00 | 0.05 | 0.05 | 63 | 1024.7 |
| 20260906111703 | 28 | 233 | 3.2 | 12.9 | 0.00 | 0.05 | 0.05 | 64 | 1024.7 |
| 20260906111202 | 28 | 145 | 1.6 | 12.9 | 0.00 | 0.05 | 0.05 | 64 | 1024.8 |
| 20260906110158 | 28 | 166 | 3.2 | 9.7 | 0.00 | 0.05 | 0.05 | 66 | 1024.8 |
| 20260906105659 | 28 | 242 | 3.2 | 8.0 | 0.00 | 0.05 | 0.05 | 67 | 1024.8 |
| 20260906105157 | 28 | 175 | 3.2 | 9.7 | 0.00 | 0.05 | 0.05 | 68 | 1024.8 |
| 20260906104659 | 27 | 255 | 3.2 | 9.7 | 0.00 | 0.05 | 0.05 | 69 | 1024.8 |
| 20260906104159 | 27 | 216 | 1.6 | 9.7 | 0.00 | 0.05 | 0.05 | 70 | 1024.7 |
| 20260906103655 | 27 | 223 | 3.2 | 9.7 | 0.00 | 0.05 | 0.05 | 71 | 1024.8 |
| 20260906103157 | 27 | 219 | 3.2 | 8.0 | 0.00 | 0.05 | 0.05 | 70 | 1024.9 |
| 20260906102656 | 27 | 264 | 1.6 | 8.0 | 0.00 | 0.05 | 0.05 | 71 | 1024.9 |
| 20260906102155 | 27 | 195 | 1.6 | 11.3 | 0.00 | 0.05 | 0.05 | 73 | 1024.9 |
| 20260906101653 | 27 | 231 | 3.2 | 11.3 | 0.00 | 0.05 | 0.05 | 72 | 1024.9 |
| 20260906101152 | 27 | 153 | 3.2 | 11.3 | 0.00 | 0.05 | 0.05 | 74 | 1024.9 |
| 20260906100654 | 27 | 148 | 3.2 | 11.3 | 0.00 | 0.05 | 0.05 | 73 | 1024.9 |
| 20260906100148 | 27 | 153 | 3.2 | 16.1 | 0.00 | 0.05 | 0.05 | 74 | 1025.0 |
| 20260906095649 | 27 | 203 | 3.2 | 16.1 | 0.00 | 0.05 | 0.05 | 74 | 1024.9 |
| 20260906095149 | 27 | 235 | 1.6 | 8.0 | 0.00 | 0.05 | 0.05 | 73 | 1025.0 |
| 20260906094652 | 27 | 212 | 1.6 | 9.7 | 0.00 | 0.05 | 0.05 | 74 | 1025.0 |
| 20260906094151 | 26 | 255 | 1.6 | 9.7 | 0.00 | 0.05 | 0.05 | 73 | 1024.9 |
| 20260906093648 | 26 | 210 | 1.6 | 6.4 | 0.00 | 0.05 | 0.05 | 74 | 1024.9 |
| 20260906093148 | 26 | 266 | 1.6 | 6.4 | 0.00 | 0.05 | 0.05 | 74 | 1025.0 |
| 20260906092648 | 26 | 96 | 1.6 | 6.4 | 0.00 | 0.05 | 0.05 | 75 | 1025.0 |
| 20260906092151 | 26 | 122 | 3.2 | 6.4 | 0.00 | 0.05 | 0.05 | 74 | 1025.0 |
| 20260906091651 | 26 | 99 | 3.2 | 9.7 | 0.00 | 0.05 | 0.05 | 77 | 1025.0 |
| 20260906091149 | 26 | 93 | 4.8 | 12.9 | 0.00 | 0.05 | 0.05 | 76 | 1025.1 |
| 20260906090648 | 26 | 35 | 4.8 | 12.9 | 0.00 | 0.05 | 0.05 | 70 | 1025.0 |
| 20260906090151 | 26 | 39 | 1.6 | 12.9 | 0.00 | 0.05 | 0.05 | 68 | 1025.0 |
| 20260906085649 | 26 | 139 | 1.6 | 8.0 | 0.00 | 0.05 | 0.05 | 77 | 1025.0 |
| 20260906085149 | 26 | 25 | 0.0 | 8.0 | 0.00 | 0.05 | 0.05 | 71 | 1024.9 |
| 20260906084649 | 25 | 106 | 1.6 | 8.0 | 0.00 | 0.05 | 0.05 | 71 | 1024.8 |
| 20260906084148 | 25 | 105 | 1.6 | 8.0 | 0.00 | 0.05 | 0.05 | 73 | 1024.8 |
| 20260906083648 | 25 | 15 | 1.6 | 6.4 | 0.00 | 0.05 | 0.05 | 79 | 1024.8 |
| 20260906082646 | 24 | 233 | 0.0 | 4.8 | 0.00 | 0.05 | 0.05 | 82 | 1024.6 |
| 20260906081646 | 24 | 203 | 1.6 | 6.4 | 0.00 | 0.05 | 0.05 | 84 | 1024.6 |
| 20260906081145 | 25 | 146 | 0.0 | 4.8 | 0.00 | 0.05 | 0.05 | 84 | 1024.6 |
| 20260906080644 | 24 | 201 | 1.6 | 4.8 | 0.00 | 0.05 | 0.05 | 86 | 1024.5 |
| 20260906080144 | 23 | 212 | 1.6 | 4.8 | 0.00 | 0.05 | 0.05 | 87 | 1024.5 |
| 20260906075645 | 23 | 271 | 0.0 | 3.2 | 0.00 | 0.05 | 0.05 | 87 | 1024.3 |
| 20260906075144 | 23 | 276 | 0.0 | 0.0 | 0.00 | 0.05 | 0.05 | 89 | 1024.3 |
| 20260906074145 | 23 | 267 | 0.0 | 1.6 | 0.00 | 0.05 | 0.05 | 88 | 1024.2 |
| 20260906073644 | 22 | 263 | 0.0 | 0.0 | 0.00 | 0.05 | 0.05 | 89 | 1024.1 |
| 20260906072642 | 21 | 264 | 0.0 | 0.0 | 0.00 | 0.05 | 0.05 | 91 | 1024.1 |
| 20260906072143 | 21 | 269 | 0.0 | 0.0 | 0.00 | 0.05 | 0.05 | 90 | 1024.1 |
| 20260906071639 | 21 | 269 | 0.0 | 1.6 | 0.00 | 0.05 | 0.05 | 89 | 1024.1 |
| 20260906071138 | 22 | 271 | 0.0 | 4.8 | 0.00 | 0.05 | 0.05 | 88 | 1024.0 |
| 20260906070638 | 22 | 250 | 0.0 | 4.8 | 0.00 | 0.05 | 0.05 | 86 | 1024.1 |
| 20260906065638 | 22 | 120 | 0.0 | 3.2 | 0.00 | 0.05 | 0.05 | 90 | 1023.9 |
| 20260906065136 | 22 | 86 | 0.0 | 3.2 | 0.00 | 0.05 | 0.05 | 91 | 1023.9 |
| 20260906064629 | 22 | 77 | 0.0 | 3.2 | 0.00 | 0.05 | 0.05 | 91 | 1023.9 |
| 20260906064124 | 22 | 76 | 0.0 | 3.2 | 0.00 | 0.05 | 0.05 | 92 | 1023.9 |
| 20260906063624 | 22 | 35 | 0.0 | 3.2 | 0.00 | 0.05 | 0.05 | 92 | 1023.8 |
| 20260906062625 | 21 | 75 | 0.0 | 1.6 | 0.00 | 0.05 | 0.05 | 94 | 1023.8 |
| 20260906062123 | 21 | 23 | 0.0 | 1.6 | 0.00 | 0.05 | 0.05 | 94 | 1023.8 |
| 20260906061622 | 20 | 23 | 0.0 | 1.6 | 0.00 | 0.05 | 0.05 | 94 | 1023.7 |
| 20260906061120 | 20 | 163 | 0.0 | 3.2 | 0.00 | 0.05 | 0.05 | 94 | 1023.8 |
| 20260906060620 | 20 | 163 | 0.0 | 3.2 | 0.00 | 0.05 | 0.05 | 95 | 1023.7 |
| 20260906060124 | 20 | 25 | 0.0 | 3.2 | 0.00 | 0.05 | 0.05 | 95 | 1023.6 |
| 20260906055622 | 20 | 49 | 0.0 | 3.2 | 0.00 | 0.05 | 0.05 | 95 | 1023.7 |
| 20260906055119 | 19 | 37 | 0.0 | 1.6 | 0.00 | 0.05 | 0.05 | 96 | 1023.6 |
| 20260906054618 | 19 | 35 | 1.6 | 3.2 | 0.00 | 0.05 | 0.05 | 96 | 1023.6 |
| 20260906054120 | 18 | 35 | 3.2 | 4.8 | 0.00 | 0.05 | 0.05 | 96 | 1023.6 |
| 20260906053111 | 18 | 23 | 1.6 | 6.4 | 0.00 | 0.05 | 0.05 | 96 | 1023.5 |
| 20260906052104 | 18 | 25 | 3.2 | 4.8 | 0.00 | 0.05 | 0.05 | 97 | 1023.5 |
| 20260906051604 | 18 | 31 | 3.2 | 6.4 | 0.00 | 0.05 | 0.05 | 97 | 1023.4 |
| 20260906051106 | 18 | 27 | 4.8 | 6.4 | 0.00 | 0.05 | 0.05 | 97 | 1023.3 |
| 20260906050604 | 18 | 30 | 3.2 | 6.4 | 0.00 | 0.05 | 0.05 | 97 | 1023.3 |
| 20260906050105 | 18 | 32 | 3.2 | 6.4 | 0.00 | 0.05 | 0.05 | 97 | 1023.3 |
| 20260906045606 | 18 | 26 | 1.6 | 4.8 | 0.00 | 0.05 | 0.05 | 97 | 1023.3 |
| 20260906045102 | 18 | 31 | 1.6 | 3.2 | 0.00 | 0.05 | 0.05 | 97 | 1023.2 |
| 20260906044601 | 18 | 32 | 1.6 | 3.2 | 0.00 | 0.05 | 0.05 | 97 | 1023.3 |
| 20260906044101 | 18 | 32 | 1.6 | 3.2 | 0.00 | 0.05 | 0.05 | 97 | 1023.3 |
| 20260906043558 | 18 | 32 | 1.6 | 3.2 | 0.00 | 0.05 | 0.05 | 97 | 1023.2 |
| 20260906043057 | 18 | 30 | 1.6 | 4.8 | 0.00 | 0.05 | 0.05 | 97 | 1023.3 |
| 20260906042103 | 18 | 30 | 1.6 | 3.2 | 0.03 | 0.05 | 0.05 | 97 | 1023.2 |
| 20260906041554 | 18 | 37 | 1.6 | 3.2 | 0.03 | 0.05 | 0.05 | 97 | 1023.2 |
| 20260906041048 | 18 | 23 | 1.6 | 4.8 | 0.03 | 0.05 | 0.05 | 97 | 1023.2 |
| 20260906040543 | 18 | 35 | 1.6 | 6.4 | 0.03 | 0.05 | 0.05 | 97 | 1023.2 |
| 20260906040045 | 18 | 34 | 0.0 | 6.4 | 0.03 | 0.05 | 0.05 | 97 | 1023.2 |
| 20260906035544 | 19 | 36 | 0.0 | 3.2 | 0.03 | 0.05 | 0.05 | 97 | 1023.1 |
| 20260906035043 | 19 | 55 | 0.0 | 3.2 | 0.03 | 0.05 | 0.05 | 97 | 1023.1 |
| 20260906034042 | 19 | 54 | 0.0 | 4.8 | 0.03 | 0.05 | 0.05 | 98 | 1023.1 |
| 20260906033544 | 19 | 36 | 0.0 | 4.8 | 0.03 | 0.05 | 0.05 | 98 | 1023.0 |
| 20260906033045 | 19 | 45 | 0.0 | 3.2 | 0.03 | 0.05 | 0.05 | 98 | 1023.0 |
| 20260906032541 | 19 | 22 | 0.0 | 3.2 | 0.03 | 0.05 | 0.05 | 98 | 1023.0 |
| 20260906032040 | 18 | 20 | 0.0 | 4.8 | 0.00 | 0.03 | 0.05 | 97 | 1023.0 |
| 20260906031537 | 18 | 25 | 0.0 | 4.8 | 0.00 | 0.03 | 0.03 | 97 | 1023.0 |
| 20260906031038 | 18 | 13 | 1.6 | 6.4 | 0.00 | 0.03 | 0.03 | 97 | 1023.0 |
| 20260906030536 | 18 | 31 | 3.2 | 11.3 | 0.00 | 0.03 | 0.03 | 97 | 1023.0 |
| 20260906030035 | 18 | 49 | 3.2 | 11.3 | 0.00 | 0.03 | 0.03 | 97 | 1022.9 |
| 20260906025531 | 19 | 58 | 1.6 | 8.0 | 0.00 | 0.03 | 0.03 | 97 | 1023.0 |
| 20260906024032 | 19 | 20 | 1.6 | 4.8 | 0.00 | 0.03 | 0.03 | 97 | 1023.0 |
| 20260906023533 | 19 | 51 | 0.0 | 4.8 | 0.00 | 0.03 | 0.03 | 97 | 1022.9 |
| 20260906023032 | 19 | 40 | 0.0 | 4.8 | 0.00 | 0.03 | 0.03 | 97 | 1023.0 |
| 20260906022028 | 20 | 77 | 1.6 | 4.8 | 0.00 | 0.03 | 0.03 | 97 | 1023.0 |
| 20260906021028 | 19 | 34 | 0.0 | 4.8 | 0.00 | 0.03 | 0.03 | 97 | 1023.0 |
| 20260906020529 | 19 | 30 | 0.0 | 4.8 | 0.00 | 0.03 | 0.03 | 97 | 1023.1 |
| 20260906020030 | 19 | 27 | 0.0 | 4.8 | 0.00 | 0.03 | 0.03 | 97 | 1023.1 |
| 20260906015529 | 19 | 18 | 0.0 | 6.4 | 0.00 | 0.03 | 0.03 | 97 | 1023.1 |
| 20260906015025 | 19 | 51 | 0.0 | 6.4 | 0.00 | 0.03 | 0.03 | 97 | 1023.0 |
| 20260906014524 | 19 | 27 | 0.0 | 3.2 | 0.00 | 0.03 | 0.03 | 97 | 1022.9 |
| 20260906013514 | 19 | 30 | 0.0 | 3.2 | 0.00 | 0.03 | 0.03 | 97 | 1023.1 |
| 20260906012510 | 19 | 27 | 1.6 | 3.2 | 0.00 | 0.03 | 0.03 | 97 | 1023.0 |
| 20260906012007 | 19 | 23 | 0.0 | 3.2 | 0.03 | 0.03 | 0.03 | 97 | 1023.1 |
| 20260906011508 | 19 | 16 | 0.0 | 3.2 | 0.03 | 0.03 | 0.03 | 97 | 1023.2 |
| 20260906011007 | 19 | 16 | 1.6 | 3.2 | 0.03 | 0.03 | 0.03 | 97 | 1023.2 |
| 20260906010005 | 19 | 11 | 1.6 | 3.2 | 0.03 | 0.03 | 0.03 | 97 | 1023.3 |
| 20260906005006 | 19 | 356 | 0.0 | 3.2 | 0.03 | 0.03 | 0.03 | 97 | 1023.3 |
| 20260906004506 | 19 | 342 | 0.0 | 1.6 | 0.03 | 0.03 | 0.03 | 97 | 1023.3 |
| 20260906003459 | 20 | 352 | 1.6 | 4.8 | 0.03 | 0.03 | 0.03 | 97 | 1023.3 |
| 20260906002500 | 20 | 342 | 1.6 | 6.4 | 0.00 | 0.00 | 0.03 | 96 | 1023.3 |
| 20260906002002 | 20 | 334 | 0.0 | 4.8 | 0.00 | 0.00 | 0.00 | 96 | 1023.4 |
| 20260906001459 | 20 | 354 | 0.0 | 4.8 | 0.00 | 0.00 | 0.00 | 97 | 1023.3 |
| 20260906001002 | 20 | 7 | 0.0 | 0.0 | 0.00 | 0.00 | 0.00 | 97 | 1023.4 |
| 20260906000000 | 20 | 359 | 0.0 | 3.2 | 0.00 | 0.00 | 0.00 | 97 | 1023.2 |
| 20260905235459 | 20 | 359 | 1.6 | 3.2 | 0.00 | 0.00 | 0.00 | 97 | 1023.3 |
| 20260905235003 | 20 | 359 | 1.6 | 3.2 | 0.00 | 0.00 | 0.00 | 96 | 1023.3 |
| 20260905234500 | 20 | 17 | 0.0 | 3.2 | 0.00 | 0.00 | 0.00 | 96 | 1023.3 |
| 20260905233959 | 20 | 356 | 0.0 | 3.2 | 0.00 | 0.00 | 0.00 | 96 | 1023.3 |
| 20260905233513 | 21 | 20 | 0.0 | 1.6 | 0.00 | 0.00 | 0.00 | 96 | 1023.4 |
| 20260905233000 | 21 | 96 | 0.0 | 1.6 | 0.00 | 0.00 | 0.00 | 96 | 1023.3 |
| 20260905232501 | 21 | 96 | 0.0 | 0.0 | 0.00 | 0.00 | 0.00 | 96 | 1023.3 |
| 20260905232002 | 21 | 96 | 0.0 | 0.0 | 0.00 | 0.00 | 0.00 | 96 | 1023.3 |
| 20260905231459 | 21 | 127 | 0.0 | 0.0 | 0.00 | 0.00 | 0.00 | 96 | 1023.4 |
| 20260905230459 | 21 | 127 | 0.0 | 0.0 | 0.00 | 0.00 | 0.00 | 96 | 1023.3 |
| 20260905225957 | 21 | 127 | 0.0 | 0.0 | 0.00 | 0.00 | 0.00 | 96 | 1023.4 |
| 20260905225458 | 21 | 127 | 0.0 | 0.0 | 0.00 | 0.00 | 0.00 | 96 | 1023.6 |
| 20260905224957 | 21 | 127 | 0.0 | 1.6 | 0.00 | 0.00 | 0.00 | 96 | 1023.5 |
| 20260905223953 | 21 | 139 | 0.0 | 3.2 | 0.00 | 0.00 | 0.00 | 96 | 1023.4 |
| 20260905222954 | 21 | 110 | 0.0 | 1.6 | 0.00 | 0.00 | 0.00 | 96 | 1023.4 |
| 20260905222456 | 21 | 117 | 0.0 | 0.0 | 0.00 | 0.00 | 0.00 | 96 | 1023.5 |
| 20260905221955 | 21 | 117 | 0.0 | 0.0 | 0.00 | 0.00 | 0.00 | 96 | 1023.5 |
| 20260905221455 | 21 | 117 | 0.0 | 0.0 | 0.00 | 0.00 | 0.00 | 96 | 1023.4 |
| 20260905220956 | 21 | 117 | 0.0 | 0.0 | 0.00 | 0.00 | 0.00 | 96 | 1023.4 |
| 20260905220456 | 21 | 117 | 0.0 | 0.0 | 0.00 | 0.00 | 0.00 | 96 | 1023.4 |
| 20260905215954 | 21 | 117 | 0.0 | 0.0 | 0.00 | 0.00 | 0.00 | 96 | 1023.3 |
| 20260905215453 | 21 | 112 | 0.0 | 1.6 | 0.00 | 0.00 | 0.00 | 95 | 1023.2 |
| 20260905214952 | 21 | 93 | 0.0 | 1.6 | 0.00 | 0.00 | 0.00 | 95 | 1023.3 |
| 20260905214450 | 21 | 87 | 0.0 | 3.2 | 0.00 | 0.00 | 0.00 | 95 | 1023.2 |
| 20260905213950 | 21 | 100 | 0.0 | 3.2 | 0.00 | 0.00 | 0.00 | 95 | 1023.1 |
| 20260905213451 | 21 | 94 | 0.0 | 1.6 | 0.00 | 0.00 | 0.00 | 95 | 1023.1 |
| 20260905212952 | 21 | 103 | 0.0 | 1.6 | 0.00 | 0.00 | 0.00 | 95 | 1023.1 |
| 20260905212449 | 21 | 112 | 0.0 | 1.6 | 0.00 | 0.00 | 0.00 | 95 | 1023.1 |
| 20260905211952 | 21 | 156 | 0.0 | 0.0 | 0.00 | 0.00 | 0.00 | 94 | 1023.1 |
| 20260905211449 | 20 | 232 | 0.0 | 0.0 | 0.00 | 0.00 | 0.00 | 94 | 1023.1 |
| 20260905210950 | 21 | 232 | 0.0 | 0.0 | 0.00 | 0.00 | 0.00 | 94 | 1023.2 |
| 20260905210450 | 20 | 232 | 0.0 | 0.0 | 0.00 | 0.00 | 0.00 | 93 | 1023.0 |
| 20260905205951 | 20 | 232 | 0.0 | 0.0 | 0.00 | 0.00 | 0.00 | 94 | 1023.1 |
| 20260905205453 | 20 | 232 | 0.0 | 0.0 | 0.00 | 0.00 | 0.00 | 93 | 1023.1 |
| 20260905204953 | 21 | 232 | 0.0 | 0.0 | 0.00 | 0.00 | 0.00 | 93 | 1023.1 |
| 20260905204449 | 21 | 232 | 0.0 | 0.0 | 0.00 | 0.00 | 0.00 | 92 | 1023.1 |
| 20260905203949 | 21 | 232 | 0.0 | 0.0 | 0.00 | 0.00 | 0.00 | 92 | 1023.1 |
| 20260905203449 | 21 | 232 | 0.0 | 0.0 | 0.00 | 0.00 | 0.00 | 92 | 1023.2 |
| 20260905202447 | 21 | 232 | 0.0 | 0.0 | 0.00 | 0.00 | 0.00 | 92 | 1023.2 |
| 20260905201950 | 21 | 232 | 0.0 | 0.0 | 0.00 | 0.00 | 0.00 | 91 | 1023.2 |
| 20260905201450 | 21 | 232 | 0.0 | 3.2 | 0.00 | 0.00 | 0.00 | 91 | 1023.2 |
| 20260905200947 | 21 | 249 | 0.0 | 3.2 | 0.00 | 0.00 | 0.00 | 92 | 1023.2 |
| 20260905200450 | 21 | 244 | 0.0 | 1.6 | 0.00 | 0.00 | 0.00 | 92 | 1023.0 |
| 20260905195948 | 21 | 244 | 0.0 | 1.6 | 0.00 | 0.00 | 0.00 | 92 | 1023.1 |
| 20260905195450 | 21 | 244 | 0.0 | 3.2 | 0.00 | 0.00 | 0.00 | 92 | 1023.1 |
| 20260905194946 | 21 | 224 | 0.0 | 3.2 | 0.00 | 0.00 | 0.00 | 92 | 1023.1 |
| 20260905194446 | 21 | 229 | 0.0 | 3.2 | 0.00 | 0.00 | 0.00 | 92 | 1023.0 |
| 20260905193945 | 21 | 145 | 0.0 | 3.2 | 0.00 | 0.00 | 0.00 | 91 | 1023.0 |
| 20260905193448 | 21 | 134 | 0.0 | 4.8 | 0.00 | 0.00 | 0.00 | 91 | 1023.0 |
| 20260905192948 | 21 | 127 | 0.0 | 4.8 | 0.00 | 0.00 | 0.00 | 90 | 1022.9 |
| 20260905191945 | 22 | 195 | 0.0 | 4.8 | 0.00 | 0.00 | 0.00 | 89 | 1023.0 |
| 20260905190945 | 22 | 196 | 0.0 | 4.8 | 0.00 | 0.00 | 0.00 | 88 | 1022.8 |
| 20260905190446 | 22 | 124 | 0.0 | 4.8 | 0.00 | 0.00 | 0.00 | 88 | 1022.7 |